Time;durP1;ratioP1;P1;durP2;ratioP2;P2;SDS_P1;SDS_P2;PMS_P1;PMS_P2;Temp;Humidity;BMP_temperature;BMP_pressure;BME280_temperature;BME280_humidity;BME280_pressure;Samples;Min_cycle;Max_cycle;Signal;HPM_P1;HPM_P2
2023/05/06 00:01:28;;;;;;;3.45;0.20;;;;;;;20.16;46.94;101530.66;16116744;19;130830;-44
2023/05/06 00:06:50;;;;;;;0.88;0.35;;;;;;;20.15;47.38;101524.25;16117719;19;130084;-40
2023/05/06 00:12:12;;;;;;;0.98;0.30;;;;;;;20.14;47.08;101528.13;16112393;19;130535;-42
2023/05/06 00:17:34;;;;;;;0.75;0.20;;;;;;;20.13;47.29;101529.22;16110547;19;131171;-41
2023/05/06 00:22:56;;;;;;;1.30;0.30;;;;;;;20.12;46.86;101533.06;16111850;19;130974;-41
2023/05/06 00:28:18;;;;;;;1.65;0.20;;;;;;;20.11;46.72;101534.16;16119362;19;129390;-40
2023/05/06 00:33:40;;;;;;;0.40;0.20;;;;;;;20.09;46.79;101522.44;16112996;19;129384;-45
2023/05/06 00:39:02;;;;;;;1.90;0.30;;;;;;;20.07;47.15;101524.59;16113864;19;131153;-40
2023/05/06 00:44:24;;;;;;;0.85;0.30;;;;;;;20.07;46.89;101527.38;16109854;19;129449;-41
2023/05/06 00:49:47;;;;;;;0.63;0.20;;;;;;;20.06;46.67;101532.09;16110355;19;130171;-42
2023/05/06 00:55:09;;;;;;;0.30;0.20;;;;;;;20.04;47.10;101522.34;16101866;19;130434;-41
2023/05/06 01:00:31;;;;;;;0.20;0.20;;;;;;;20.03;46.61;101515.91;16111068;19;130528;-41
2023/05/06 01:06:06;;;;;;;0.45;0.20;;;;;;;20.03;46.77;101518.69;16102935;19;130028;-40
2023/05/06 01:11:30;;;;;;;0.98;0.30;;;;;;;20.01;46.76;101514.47;16109676;19;129745;-41
2023/05/06 01:16:57;;;;;;;0.80;0.20;;;;;;;19.99;46.58;101507.22;16102840;19;131153;-42
2023/05/06 01:22:23;;;;;;;0.73;0.22;;;;;;;19.98;46.68;101508.28;16092090;19;129794;-40
2023/05/06 01:27:45;;;;;;;0.22;0.20;;;;;;;19.97;46.52;101509.38;16107175;19;129800;-40
2023/05/06 01:33:13;;;;;;;3.78;0.43;;;;;;;19.96;46.40;101510.44;16102462;19;129414;-40
2023/05/06 01:44:22;;;;;;;0.60;0.17;;;;;;;19.94;46.74;101515.38;16197662;19;129576;-50
2023/05/06 01:49:44;;;;;;;0.10;0.10;;;;;;;19.94;46.60;101523.72;16179541;19;130844;-40
2023/05/06 01:55:06;;;;;;;0.30;0.20;;;;;;;19.92;46.52;101517.59;16195074;19;136406;-41
2023/05/06 02:00:29;;;;;;;0.30;0.10;;;;;;;19.92;46.48;101528.69;16191185;19;130102;-41
2023/05/06 02:05:51;;;;;;;0.28;0.20;;;;;;;19.91;46.29;101528.91;16188605;19;130108;-41
2023/05/06 02:11:13;;;;;;;0.85;0.45;;;;;;;19.89;46.49;101537.50;16189342;19;130899;-40
2023/05/06 02:16:35;;;;;;;0.30;0.28;;;;;;;19.89;46.18;101523.63;16185510;19;130184;-42
2023/05/06 02:21:57;;;;;;;1.65;0.22;;;;;;;19.87;46.53;101534.13;16186030;19;130512;-41
2023/05/06 02:27:19;;;;;;;0.32;0.30;;;;;;;19.87;46.35;101533.28;16186932;19;129687;-40
2023/05/06 02:32:40;;;;;;;0.70;0.30;;;;;;;19.86;46.51;101526.03;16189151;19;135298;-40
2023/05/06 02:38:03;;;;;;;0.13;0.10;;;;;;;19.83;46.41;101522.66;16185874;19;131326;-40
2023/05/06 02:43:25;;;;;;;0.25;0.20;;;;;;;19.84;46.18;101517.94;16182873;19;129891;-42
2023/05/06 02:48:46;;;;;;;0.40;0.30;;;;;;;19.83;46.37;101505.13;16181316;19;131079;-44
2023/05/06 02:54:08;;;;;;;1.30;0.20;;;;;;;19.83;45.86;101505.13;16137063;19;129210;-40
2023/05/06 02:59:30;;;;;;;0.38;0.28;;;;;;;19.79;46.29;101510.31;16122380;19;129585;-43
2023/05/06 03:04:52;;;;;;;0.75;0.20;;;;;;;19.79;46.21;101517.81;16117061;19;129345;-42
2023/05/06 03:10:14;;;;;;;0.63;0.30;;;;;;;19.78;46.19;101525.28;16119194;19;131447;-41
2023/05/06 03:15:36;;;;;;;0.17;0.15;;;;;;;19.79;46.08;101528.94;16121494;19;130845;-40
2023/05/06 03:20:58;;;;;;;0.95;0.20;;;;;;;19.77;46.04;101525.53;16114143;19;129509;-41
2023/05/06 03:26:20;;;;;;;0.10;0.10;;;;;;;19.77;45.78;101517.22;16120891;19;129249;-40
2023/05/06 03:31:42;;;;;;;0.20;0.10;;;;;;;19.76;46.06;101516.34;16121686;19;130857;-40
2023/05/06 03:37:03;;;;;;;0.10;0.10;;;;;;;19.75;46.11;101519.38;16114873;19;130049;-41
2023/05/06 03:42:25;;;;;;;0.10;0.10;;;;;;;19.72;46.02;101508.75;16116058;19;134493;-42
2023/05/06 03:47:47;;;;;;;2.13;0.20;;;;;;;19.69;45.64;101522.00;16117444;19;131623;-41
2023/05/06 03:53:09;;;;;;;0.20;0.10;;;;;;;19.68;45.95;101523.13;16112042;19;130154;-44
2023/05/06 03:58:31;;;;;;;0.20;0.10;;;;;;;19.67;45.82;101529.75;16115079;19;129945;-40
2023/05/06 04:03:53;;;;;;;0.10;0.10;;;;;;;19.68;46.11;101533.38;16115106;19;131147;-40
2023/05/06 04:09:15;;;;;;;0.30;0.30;;;;;;;19.65;45.66;101529.13;16115435;19;131335;-43
2023/05/06 04:14:38;;;;;;;1.58;0.10;;;;;;;19.66;45.67;101529.97;16111985;19;129351;-41
2023/05/06 04:20:07;;;;;;;0.20;0.10;;;;;;;19.66;46.02;101532.75;16116997;19;133560;-40
2023/05/06 04:25:29;;;;;;;0.40;0.17;;;;;;;19.63;45.67;101534.09;16117823;19;131490;-40
2023/05/06 04:30:51;;;;;;;0.10;0.10;;;;;;;19.61;45.95;101536.25;16115196;19;129884;-41
2023/05/06 04:36:13;;;;;;;2.03;0.10;;;;;;;19.61;45.55;101546.50;16115814;19;131000;-40
2023/05/06 04:41:36;;;;;;;0.00;0.00;;;;;;;19.60;45.47;101542.88;16113299;19;130341;-42
2023/05/06 04:46:58;;;;;;;1.75;0.17;;;;;;;19.61;45.83;101554.84;16114740;19;129101;-41
2023/05/06 04:52:20;;;;;;;0.28;0.13;;;;;;;19.61;45.61;101552.06;16110130;19;129357;-43
2023/05/06 04:57:42;;;;;;;0.08;0.08;;;;;;;19.59;45.77;101555.06;16113466;19;130507;-40
2023/05/06 05:03:04;;;;;;;0.28;0.10;;;;;;;19.58;45.37;101550.59;16112206;19;130098;-41
2023/05/06 05:08:26;;;;;;;0.20;0.17;;;;;;;19.59;45.27;101555.06;16113127;19;129993;-41
2023/05/06 05:13:48;;;;;;;0.15;0.15;;;;;;;19.56;45.51;101561.13;16108563;19;129361;-39
2023/05/06 05:19:10;;;;;;;0.40;0.20;;;;;;;19.56;45.26;101571.34;16110296;19;129711;-41
2023/05/06 05:24:31;;;;;;;0.10;0.10;;;;;;;19.55;45.23;101567.75;16111389;19;131529;-41
2023/05/06 05:29:53;;;;;;;0.47;0.20;;;;;;;19.55;45.22;101564.97;16110673;19;129910;-41
2023/05/06 05:35:15;;;;;;;0.22;0.10;;;;;;;19.56;45.41;101574.13;16109855;19;131696;-41
2023/05/06 05:40:38;;;;;;;0.57;0.10;;;;;;;19.55;45.20;101573.28;16109369;19;130922;-40
2023/05/06 05:46:00;;;;;;;0.10;0.10;;;;;;;19.55;45.73;101573.28;16111260;19;129390;-41
2023/05/06 05:51:22;;;;;;;0.38;0.10;;;;;;;19.53;45.67;101567.13;16109742;19;129701;-45
2023/05/06 05:56:44;;;;;;;0.10;0.10;;;;;;;19.63;45.72;101572.09;16108778;19;129695;-45
2023/05/06 06:02:06;;;;;;;0.20;0.20;;;;;;;19.78;45.54;101575.25;16108488;19;129706;-42
2023/05/06 06:07:28;;;;;;;0.10;0.10;;;;;;;19.91;45.54;101578.91;16108123;19;130467;-40
2023/05/06 06:12:50;;;;;;;0.10;0.10;;;;;;;19.98;45.37;101580.50;16108103;19;132174;-43
2023/05/06 06:18:13;;;;;;;0.25;0.20;;;;;;;20.02;45.04;101580.03;16100379;19;130542;-44
2023/05/06 06:23:35;;;;;;;0.10;0.10;;;;;;;20.03;45.04;101587.28;16110184;19;130302;-40
2023/05/06 06:28:56;;;;;;;1.55;0.50;;;;;;;20.01;45.16;101579.19;16108936;19;129566;-43
2023/05/06 06:34:18;;;;;;;0.32;0.10;;;;;;;20.01;44.81;101583.91;16115033;19;129613;-40
2023/05/06 06:39:40;;;;;;;6.95;0.30;;;;;;;20.01;44.73;101579.19;16113851;19;133394;-42
2023/05/06 06:45:03;;;;;;;2.22;0.40;;;;;;;20.07;44.66;101588.47;16116419;19;129811;-43
2023/05/06 06:50:25;;;;;;;6.22;0.88;;;;;;;20.14;44.54;101578.97;16109787;19;132206;-44
2023/05/06 06:55:47;;;;;;;11.10;0.80;;;;;;;20.20;44.07;101577.16;16118034;19;129546;-41
2023/05/06 07:01:09;;;;;;;10.60;1.38;;;;;;;20.26;44.30;101580.88;16114708;19;129991;-41
2023/05/06 07:06:31;;;;;;;8.23;1.15;;;;;;;20.28;44.00;101587.91;16113497;19;129218;-41
2023/05/06 07:11:53;;;;;;;7.50;1.70;;;;;;;20.28;43.82;101585.13;16118483;19;129977;-41
2023/05/06 07:17:15;;;;;;;8.30;1.95;;;;;;;20.32;43.45;101590.19;16114859;19;130299;-45
2023/05/06 07:22:37;;;;;;;9.40;2.45;;;;;;;20.35;43.07;101578.59;16114020;19;130366;-42
2023/05/06 07:27:59;;;;;;;5.65;2.42;;;;;;;20.38;43.06;101581.72;16118911;19;129770;-41
2023/05/06 07:33:21;;;;;;;8.30;2.88;;;;;;;20.42;43.21;101584.91;16118468;19;129856;-42
2023/05/06 07:38:44;;;;;;;7.65;2.58;;;;;;;20.44;43.00;101585.47;16109832;19;132013;-41
2023/05/06 07:44:06;;;;;;;5.35;2.33;;;;;;;20.48;43.23;101589.47;16103200;19;131193;-42
2023/05/06 07:49:29;;;;;;;8.75;2.42;;;;;;;20.50;43.51;101578.97;16107317;19;131416;-42
2023/05/06 07:54:52;;;;;;;14.50;2.55;;;;;;;20.52;43.18;101576.78;16121288;19;130618;-44
2023/05/06 08:00:14;;;;;;;5.25;2.05;;;;;;;20.54;43.45;101576.53;16119006;19;131054;-43
2023/05/06 08:05:36;;;;;;;3.42;1.83;;;;;;;20.55;43.04;101578.22;16122186;19;129526;-43
2023/05/06 08:10:58;;;;;;;8.50;1.88;;;;;;;20.54;43.23;101582.94;16121536;19;129145;-39
2023/05/06 08:16:19;;;;;;;6.45;1.70;;;;;;;20.51;43.49;101591.78;16121388;19;129722;-41
2023/05/06 08:21:44;;;;;;;4.18;1.77;;;;;;;20.47;43.58;101592.50;16119161;19;129779;-42
2023/05/06 08:27:06;;;;;;;4.40;2.10;;;;;;;20.43;43.52;101592.97;16118634;19;130062;-41
2023/05/06 08:32:29;;;;;;;4.60;1.80;;;;;;;20.40;43.61;101592.63;16117150;19;129846;-41
2023/05/06 08:37:51;;;;;;;6.05;1.73;;;;;;;20.38;43.49;101590.06;16116081;19;130798;-43
2023/05/06 08:43:13;;;;;;;4.63;1.55;;;;;;;20.38;43.65;101578.94;16116857;19;129404;-41
2023/05/06 08:48:36;;;;;;;3.90;1.45;;;;;;;20.39;43.32;101583.44;16116305;19;130791;-43
2023/05/06 08:54:02;;;;;;;2.88;1.20;;;;;;;20.40;43.50;101579.56;16116462;19;129619;-41
2023/05/06 08:59:29;;;;;;;3.88;1.25;;;;;;;20.41;43.55;101588.75;16120382;19;129727;-40
2023/05/06 09:04:52;;;;;;;4.40;1.33;;;;;;;20.39;43.70;101588.16;16114963;19;129511;-41
2023/05/06 09:10:16;;;;;;;4.97;1.45;;;;;;;20.39;43.70;101580.66;16115667;19;130155;-41
2023/05/06 09:15:48;;;;;;;3.05;0.90;;;;;;;20.41;43.74;101591.53;16116504;19;131234;-42
2023/05/06 09:21:10;;;;;;;2.78;1.52;;;;;;;20.40;43.51;101575.94;16114612;19;130464;-41
2023/05/06 09:26:33;;;;;;;3.00;1.30;;;;;;;20.42;43.67;101573.78;16118068;19;131026;-42
2023/05/06 09:31:55;;;;;;;3.28;1.30;;;;;;;20.42;43.39;101576.56;16117720;19;130280;-41
2023/05/06 09:37:19;;;;;;;2.40;1.05;;;;;;;20.41;43.54;101577.66;16114299;19;129878;-41
2023/05/06 09:42:42;;;;;;;4.22;1.20;;;;;;;20.41;43.55;101561.81;16116180;19;131376;-41
2023/05/06 09:48:07;;;;;;;1.55;0.90;;;;;;;20.42;43.38;101562.66;16115781;19;129546;-41
2023/05/06 09:53:31;;;;;;;1.93;0.90;;;;;;;20.42;43.33;101557.09;16113321;19;131625;-41
2023/05/06 09:58:54;;;;;;;4.73;1.17;;;;;;;20.41;43.71;101556.25;16108534;19;129229;-42
2023/05/06 10:04:17;;;;;;;2.55;0.90;;;;;;;20.40;43.29;101557.31;16121818;19;129319;-44
2023/05/06 10:09:40;;;;;;;1.70;0.90;;;;;;;20.39;43.57;101552.03;16128824;19;130475;-44
2023/05/06 10:15:03;;;;;;;1.95;0.95;;;;;;;20.40;43.38;101556.50;16127836;19;130789;-45
2023/05/06 10:20:26;;;;;;;2.55;0.95;;;;;;;20.39;43.84;101550.06;16131898;19;129327;-43
2023/05/06 10:25:52;;;;;;;1.65;0.80;;;;;;;20.40;43.39;101548.16;16129636;19;129386;-42
2023/05/06 10:31:15;;;;;;;2.63;1.00;;;;;;;20.39;43.81;101535.34;16128149;19;129740;-42
2023/05/06 10:36:39;;;;;;;3.72;0.82;;;;;;;20.39;43.42;101530.63;16125319;19;129524;-42
2023/05/06 10:42:01;;;;;;;2.38;1.17;;;;;;;20.39;43.57;101529.78;16127292;19;129010;-44
2023/05/06 10:47:23;;;;;;;2.40;0.73;;;;;;;20.39;43.54;101525.06;16127542;19;130157;-44
2023/05/06 10:52:46;;;;;;;3.38;0.90;;;;;;;20.40;43.61;101520.38;16124122;19;129713;-44
2023/05/06 10:58:14;;;;;;;2.00;1.00;;;;;;;20.43;43.89;101528.22;16124283;19;129699;-46
2023/05/06 11:03:36;;;;;;;1.20;0.82;;;;;;;20.40;43.27;101514.81;16122865;19;131244;-42
2023/05/06 11:09:00;;;;;;;0.95;0.52;;;;;;;20.41;43.44;101506.22;16124379;19;129216;-43
2023/05/06 11:14:29;;;;;;;0.85;0.60;;;;;;;20.42;43.25;101502.34;16126068;19;129510;-44
2023/05/06 11:20:17;;;;;;;1.63;0.50;;;;;;;20.44;43.27;101507.66;16120536;19;131015;-40
2023/05/06 11:25:41;;;;;;;2.83;0.82;;;;;;;20.43;43.73;101508.78;16126896;19;130014;-44
2023/05/06 11:31:03;;;;;;;1.23;0.70;;;;;;;20.43;43.61;101500.44;16125964;19;131048;-42
2023/05/06 11:36:27;;;;;;;0.90;0.50;;;;;;;20.44;43.25;101499.31;16127407;19;133405;-43
2023/05/06 11:41:51;;;;;;;2.22;0.82;;;;;;;20.43;43.59;101497.66;16123451;19;130013;-41
2023/05/06 11:47:14;;;;;;;0.90;0.60;;;;;;;20.44;43.23;101490.97;16126186;19;129548;-43
2023/05/06 11:52:36;;;;;;;1.67;0.63;;;;;;;20.45;43.38;101495.44;16126972;19;130581;-40
2023/05/06 11:57:58;;;;;;;0.80;0.55;;;;;;;20.44;43.65;101488.19;16126116;19;129804;-41
2023/05/06 12:03:20;;;;;;;1.00;0.55;;;;;;;20.45;43.38;101498.22;16123476;19;129756;-43
2023/05/06 12:08:43;;;;;;;0.70;0.40;;;;;;;20.45;43.37;101495.44;16127899;19;129562;-41
2023/05/06 12:14:07;;;;;;;0.95;0.43;;;;;;;20.46;43.35;101488.81;16122969;19;130522;-42
2023/05/06 12:19:29;;;;;;;2.17;0.50;;;;;;;20.45;43.11;101485.19;16123116;19;130086;-42
2023/05/06 12:24:51;;;;;;;0.50;0.40;;;;;;;20.47;43.20;101498.84;16119398;19;129733;-41
2023/05/06 12:30:13;;;;;;;0.50;0.50;;;;;;;20.45;43.16;101501.88;16121194;19;130036;-46
2023/05/06 12:35:36;;;;;;;0.93;0.35;;;;;;;20.47;43.37;101496.06;16122001;19;131849;-42
2023/05/06 12:40:58;;;;;;;2.28;0.50;;;;;;;20.48;43.39;101483.03;16116706;19;129506;-43
2023/05/06 12:46:20;;;;;;;0.63;0.52;;;;;;;20.48;43.08;101486.63;16123066;19;129992;-44
2023/05/06 12:51:42;;;;;;;0.73;0.50;;;;;;;20.48;43.17;101486.63;16121217;19;129547;-41
2023/05/06 12:57:06;;;;;;;1.23;0.60;;;;;;;20.49;43.09;101493.06;16120218;19;130003;-45
2023/05/06 13:02:28;;;;;;;0.68;0.30;;;;;;;20.49;43.42;101496.66;16119777;19;131014;-41
2023/05/06 13:07:51;;;;;;;0.90;0.30;;;;;;;20.49;43.24;101490.28;16120067;19;131239;-43
2023/05/06 13:13:13;;;;;;;1.15;0.40;;;;;;;20.48;43.21;101486.63;16117415;19;129467;-42
2023/05/06 13:18:35;;;;;;;0.98;0.50;;;;;;;20.47;43.54;101490.50;16116439;19;129507;-40
2023/05/06 13:23:58;;;;;;;0.47;0.30;;;;;;;20.46;42.97;101491.59;16118525;19;129260;-42
2023/05/06 13:29:22;;;;;;;0.60;0.50;;;;;;;20.46;43.46;101502.69;16120595;19;131436;-43
2023/05/06 13:34:44;;;;;;;0.70;0.32;;;;;;;20.44;43.29;101508.50;16113688;19;130485;-43
2023/05/06 13:40:06;;;;;;;2.20;0.40;;;;;;;20.42;43.25;101518.19;16115617;19;133421;-41
2023/05/06 13:45:28;;;;;;;0.55;0.30;;;;;;;20.40;43.47;101514.81;16116541;19;129402;-41
2023/05/06 13:50:51;;;;;;;1.05;0.40;;;;;;;20.39;43.14;101507.56;16116314;19;130361;-40
2023/05/06 13:56:12;;;;;;;0.50;0.30;;;;;;;20.37;43.07;101501.41;16116053;19;130274;-43
2023/05/06 14:01:34;;;;;;;0.73;0.40;;;;;;;20.35;43.15;101496.09;16115517;19;129972;-41
2023/05/06 14:06:56;;;;;;;0.52;0.38;;;;;;;20.35;43.09;101496.09;16115349;19;130176;-43
2023/05/06 14:12:18;;;;;;;0.98;0.50;;;;;;;20.34;43.04;101485.22;16112258;19;129155;-43
2023/05/06 14:17:40;;;;;;;0.30;0.30;;;;;;;20.34;43.45;101487.97;16113225;19;129606;-44
2023/05/06 14:23:05;;;;;;;0.60;0.20;;;;;;;20.33;43.25;101486.28;16112023;19;130401;-43
2023/05/06 14:28:27;;;;;;;0.98;0.30;;;;;;;20.32;43.05;101479.03;16113353;19;129671;-43
2023/05/06 14:33:49;;;;;;;0.65;0.30;;;;;;;20.32;43.20;101479.03;16112106;19;130546;-41
2023/05/06 14:39:11;;;;;;;0.20;0.20;;;;;;;20.31;43.25;101477.38;16107444;19;129339;-41
2023/05/06 14:44:33;;;;;;;0.30;0.20;;;;;;;20.30;43.40;101465.41;16110942;19;129563;-41
2023/05/06 14:49:55;;;;;;;0.57;0.28;;;;;;;20.29;43.30;101464.56;16114609;19;129414;-42
2023/05/06 14:55:19;;;;;;;0.47;0.30;;;;;;;20.29;43.44;101459.03;16121102;19;130326;-41
2023/05/06 15:00:40;;;;;;;0.63;0.30;;;;;;;20.27;43.43;101455.63;16124108;19;134432;-41
2023/05/06 15:06:02;;;;;;;0.25;0.13;;;;;;;20.27;42.88;101450.06;16124609;19;130465;-43
2023/05/06 15:11:24;;;;;;;0.90;0.20;;;;;;;20.27;43.01;101444.53;16125358;19;131108;-41
2023/05/06 15:16:46;;;;;;;0.80;0.20;;;;;;;20.27;42.96;101450.06;16120998;19;129634;-42
2023/05/06 15:22:08;;;;;;;0.38;0.20;;;;;;;20.27;43.39;101452.84;16124238;19;129516;-44
2023/05/06 15:27:30;;;;;;;0.65;0.30;;;;;;;20.26;43.32;101451.16;16123082;19;131923;-43
2023/05/06 15:32:52;;;;;;;0.45;0.20;;;;;;;20.26;43.06;101465.06;16124983;19;129487;-43
2023/05/06 15:38:14;;;;;;;0.50;0.20;;;;;;;20.26;43.41;101459.50;16121299;19;129278;-42
2023/05/06 15:43:36;;;;;;;0.20;0.13;;;;;;;20.25;42.93;101474.47;16124033;19;129486;-43
2023/05/06 15:48:59;;;;;;;0.20;0.10;;;;;;;20.26;43.14;101469.75;16124328;19;130490;-41
2023/05/06 15:54:24;;;;;;;0.17;0.17;;;;;;;20.24;42.95;101472.78;16124983;19;130517;-43
2023/05/06 15:59:46;;;;;;;0.20;0.20;;;;;;;20.24;43.17;101478.34;16121882;19;130027;-42
2023/05/06 16:05:08;;;;;;;0.68;0.20;;;;;;;20.23;42.92;101481.38;16120090;19;129301;-43
2023/05/06 16:10:30;;;;;;;0.47;0.10;;;;;;;20.22;43.32;101497.19;16120627;19;129555;-42
2023/05/06 16:15:52;;;;;;;0.32;0.10;;;;;;;20.21;43.14;101492.72;16120223;19;129304;-41
2023/05/06 16:21:14;;;;;;;0.03;0.03;;;;;;;20.21;42.94;101494.66;16119453;19;131588;-41
2023/05/06 16:26:36;;;;;;;0.47;0.20;;;;;;;20.21;42.96;101487.16;16119998;19;130944;-44
2023/05/06 16:31:59;;;;;;;1.77;0.50;;;;;;;20.19;43.52;101492.09;16123475;19;129293;-43
2023/05/06 16:37:21;;;;;;;1.70;0.60;;;;;;;20.18;43.42;101489.59;16119341;19;131031;-43
2023/05/06 16:42:43;;;;;;;1.77;0.38;;;;;;;20.16;43.56;101487.06;16118922;19;129548;-42
2023/05/06 16:48:05;;;;;;;0.88;0.30;;;;;;;20.16;43.63;101487.06;16120368;19;131173;-44
2023/05/06 16:53:28;;;;;;;0.43;0.20;;;;;;;20.17;43.20;101483.19;16115527;19;130606;-41
2023/05/06 16:58:50;;;;;;;0.30;0.20;;;;;;;20.25;43.54;101477.25;16117507;19;129859;-41
2023/05/06 17:04:12;;;;;;;0.65;0.10;;;;;;;20.35;43.23;101479.41;16115017;19;130260;-44
2023/05/06 17:09:34;;;;;;;0.45;0.20;;;;;;;20.43;43.32;101465.13;16107673;19;129794;-42
2023/05/06 17:14:56;;;;;;;0.30;0.20;;;;;;;20.51;43.14;101466.69;16102223;19;130375;-41
2023/05/06 17:20:18;;;;;;;1.23;0.30;;;;;;;20.59;42.71;101463.50;16106467;19;130425;-43
2023/05/06 17:25:40;;;;;;;1.15;0.30;;;;;;;20.63;42.79;101463.84;16113218;19;133602;-46
2023/05/06 17:31:02;;;;;;;2.90;0.22;;;;;;;20.63;42.88;101463.03;16113001;19;130336;-47
2023/05/06 17:36:24;;;;;;;12.23;0.90;;;;;;;20.62;42.85;101467.72;16112637;19;131563;-42
2023/05/06 17:41:46;;;;;;;2.88;0.45;;;;;;;20.62;42.83;101464.94;16111451;19;130331;-42
2023/05/06 17:47:09;;;;;;;10.90;0.70;;;;;;;20.65;43.05;101464.47;16104958;19;130372;-43
2023/05/06 17:52:30;;;;;;;5.43;1.10;;;;;;;20.70;43.49;101474.84;16110659;19;131563;-44
2023/05/06 17:57:52;;;;;;;29.38;1.50;;;;;;;20.81;43.14;101479.53;16108427;19;130228;-43
2023/05/06 18:03:15;;;;;;;11.02;1.10;;;;;;;20.86;43.30;101478.81;16106907;19;130294;-42
2023/05/06 18:08:37;;;;;;;16.83;1.55;;;;;;;20.86;43.54;101474.09;16103383;19;129218;-43
2023/05/06 18:13:58;;;;;;;17.33;1.60;;;;;;;20.89;43.64;101478.31;16102497;19;129879;-41
2023/05/06 18:19:20;;;;;;;13.65;0.90;;;;;;;20.97;43.29;101482.63;16105648;19;130860;-41
2023/05/06 18:24:42;;;;;;;10.10;1.45;;;;;;;21.05;43.52;101483.06;16116319;19;130265;-41
2023/05/06 18:30:05;;;;;;;9.20;0.98;;;;;;;21.12;43.17;101488.47;16123843;19;129310;-42
2023/05/06 18:35:27;;;;;;;9.57;1.23;;;;;;;21.14;43.18;101483.53;16117636;19;130020;-42
2023/05/06 18:40:49;;;;;;;6.40;0.82;;;;;;;21.15;43.25;101482.44;16121994;19;130652;-44
2023/05/06 18:46:10;;;;;;;7.93;0.88;;;;;;;21.12;43.36;101491.25;16121308;19;130302;-41
2023/05/06 18:51:33;;;;;;;4.57;0.65;;;;;;;21.10;43.27;101485.09;16120424;19;130655;-42
2023/05/06 18:56:54;;;;;;;12.00;1.05;;;;;;;21.06;43.35;101484.75;16118861;19;130690;-47
2023/05/06 19:02:16;;;;;;;3.95;0.85;;;;;;;21.03;43.87;101490.00;16118224;19;130374;-41
2023/05/06 19:07:38;;;;;;;16.20;1.48;;;;;;;21.01;43.66;101487.44;16120268;19;130660;-41
2023/05/06 19:13:00;;;;;;;17.08;0.80;;;;;;;21.02;44.10;101485.50;16116559;19;129523;-42
2023/05/06 19:18:22;;;;;;;11.10;1.20;;;;;;;21.02;44.04;101477.16;16118303;19;129769;-42
2023/05/06 19:23:44;;;;;;;11.55;1.48;;;;;;;20.99;44.18;101477.66;16118282;19;130078;-44
2023/05/06 19:29:06;;;;;;;18.40;1.48;;;;;;;20.96;44.09;101483.72;16115848;19;135406;-43
2023/05/06 19:34:28;;;;;;;21.88;1.65;;;;;;;20.95;44.56;101476.47;16116946;19;130982;-45
2023/05/06 19:39:49;;;;;;;21.83;1.55;;;;;;;20.95;44.17;101479.25;16111169;19;129998;-43
2023/05/06 19:45:12;;;;;;;17.27;1.38;;;;;;;20.92;44.60;101472.25;16123694;19;131160;-42
2023/05/06 19:50:36;;;;;;;17.30;1.20;;;;;;;20.90;44.42;101475.28;16134170;19;130597;-46
2023/05/06 19:56:07;;;;;;;11.90;1.23;;;;;;;20.93;44.64;101473.06;16130786;19;130797;-42
2023/05/06 20:01:29;;;;;;;13.18;1.42;;;;;;;20.93;44.15;101473.94;16127966;19;131726;-44
2023/05/06 20:06:51;;;;;;;11.90;1.95;;;;;;;20.94;44.30;101483.13;16135851;19;131067;-46
2023/05/06 20:12:13;;;;;;;15.68;1.70;;;;;;;20.94;43.89;101469.22;16111683;19;130738;-44
2023/05/06 20:17:35;;;;;;;18.08;1.65;;;;;;;20.96;43.81;101475.38;16114300;19;129679;-42
2023/05/06 20:22:57;;;;;;;10.82;1.73;;;;;;;20.96;44.04;101459.53;16114554;19;131185;-42
2023/05/06 20:28:18;;;;;;;13.23;1.98;;;;;;;20.94;43.67;101467.28;16118807;19;132787;-42
2023/05/06 20:33:41;;;;;;;17.67;1.70;;;;;;;20.90;43.75;101458.59;16118721;19;133118;-42
2023/05/06 20:39:08;;;;;;;11.38;1.35;;;;;;;20.88;43.67;101454.38;16115917;19;131845;-43
2023/05/06 20:44:30;;;;;;;9.55;1.23;;;;;;;20.85;44.09;101468.78;16093619;19;130159;-41
2023/05/06 20:49:53;;;;;;;13.82;1.77;;;;;;;20.82;43.81;101470.09;16111089;19;130932;-41
2023/05/06 20:55:15;;;;;;;17.10;1.70;;;;;;;20.79;43.90;101473.41;16116577;19;129442;-43
2023/05/06 21:00:37;;;;;;;12.55;1.15;;;;;;;20.77;43.94;101492.28;16115255;19;130966;-43
2023/05/06 21:05:59;;;;;;;6.60;1.10;;;;;;;20.75;43.57;101491.63;16114105;19;131106;-44
2023/05/06 21:11:21;;;;;;;5.43;1.02;;;;;;;20.71;43.57;101487.66;16110866;19;130542;-42
2023/05/06 21:16:43;;;;;;;7.57;1.10;;;;;;;20.69;43.78;101489.81;16103463;19;130009;-40
2023/05/06 21:22:08;;;;;;;7.32;1.10;;;;;;;20.66;43.88;101479.22;16100075;19;130523;-46
2023/05/06 21:27:30;;;;;;;;;;;;;;;20.62;43.46;101480.78;16102941;19;130996;-43
2023/05/06 21:32:52;;;;;;;4.68;0.90;;;;;;;20.61;43.49;101474.41;16103412;19;130173;-41
2023/05/06 21:38:14;;;;;;;4.05;0.85;;;;;;;20.58;43.82;101470.16;16103765;19;130989;-43
2023/05/06 21:43:36;;;;;;;3.97;0.70;;;;;;;20.56;43.88;101477.91;16104862;19;130448;-42
2023/05/06 21:48:58;;;;;;;3.75;0.80;;;;;;;20.54;43.41;101471.75;16101933;19;130646;-50
2023/05/06 21:54:20;;;;;;;4.05;0.90;;;;;;;20.54;43.83;101471.75;16101766;19;130568;-41
2023/05/06 21:59:42;;;;;;;3.78;0.68;;;;;;;20.51;43.44;101461.13;16116326;19;130981;-41
2023/05/06 22:05:05;;;;;;;4.72;0.95;;;;;;;20.51;43.40;101460.28;16121963;19;129595;-42
2023/05/06 22:10:27;;;;;;;5.47;0.80;;;;;;;20.49;43.59;101457.75;16118521;19;130638;-41
2023/05/06 22:15:50;;;;;;;3.40;0.85;;;;;;;20.48;43.43;101461.63;16123460;19;130638;-43
2023/05/06 22:21:12;;;;;;;2.28;0.52;;;;;;;20.48;43.72;101460.78;16117997;19;130792;-41
2023/05/06 22:26:34;;;;;;;2.03;0.52;;;;;;;20.45;43.72;101456.53;16119859;19;130253;-41
2023/05/06 22:31:56;;;;;;;5.55;0.90;;;;;;;20.44;43.48;101458.50;16120817;19;129905;-41
2023/05/06 22:37:18;;;;;;;3.88;0.70;;;;;;;20.43;43.55;101464.31;16125831;19;130805;-45
2023/05/06 22:42:40;;;;;;;2.10;0.60;;;;;;;20.41;43.69;101472.03;16128240;19;129443;-42
2023/05/06 22:48:03;;;;;;;5.55;0.50;;;;;;;20.40;43.27;101467.56;16125635;19;129368;-43
2023/05/06 22:53:25;;;;;;;3.40;0.50;;;;;;;20.39;43.53;101485.31;16121879;19;129881;-40
2023/05/06 22:58:46;;;;;;;3.95;0.50;;;;;;;20.38;43.20;101483.63;16121671;19;130380;-41
2023/05/06 23:04:08;;;;;;;1.38;0.60;;;;;;;20.37;43.45;101476.38;16117285;19;130190;-40
2023/05/06 23:09:30;;;;;;;1.38;0.30;;;;;;;20.37;43.24;101484.72;16116819;19;130710;-41
2023/05/06 23:14:52;;;;;;;1.40;0.50;;;;;;;20.36;43.46;101483.91;16122907;19;131777;-41
2023/05/06 23:20:15;;;;;;;0.98;0.30;;;;;;;20.34;43.28;101477.72;16122725;19;130260;-42
2023/05/06 23:25:37;;;;;;;2.67;0.40;;;;;;;20.34;43.61;101487.97;16124007;19;129330;-44
2023/05/06 23:30:59;;;;;;;1.63;0.43;;;;;;;20.33;43.37;101480.72;16123437;19;129909;-43
2023/05/06 23:36:21;;;;;;;0.98;0.40;;;;;;;20.32;43.32;101487.38;16122122;19;129594;-41
2023/05/06 23:41:43;;;;;;;0.52;0.32;;;;;;;20.32;43.17;101492.94;16119951;19;129346;-42
2023/05/06 23:47:05;;;;;;;0.20;0.20;;;;;;;20.30;43.39;101484.84;16122768;19;130993;-41
2023/05/06 23:52:27;;;;;;;1.70;0.50;;;;;;;20.29;43.54;101486.81;16120293;19;129390;-42
2023/05/06 23:57:49;;;;;;;0.75;0.30;;;;;;;20.27;43.18;101485.34;16120010;19;129804;-42
